Pagrindinis puslapis
METAR-TAF:

METAR-TAF

Oro uostai :

Sen Deni, Reunjonas

platuma: 20-53S, ilguma: 055-31E, Aukštis: 21 m

Dabartinis oras

Ataskaita buvo paskelbta 44 minutes, ne 20:30 UTC
Vėjas 9 kt iš Rytų/Pietryčių
Temperatūra 25°C
Drėgmė 74%
Slėgis 1017 hPa
Matomumas 10 km arba daugiau
nėra debesų žemiau 1500 m ir nėra kamuolinių lietaus debesų

METAR: FMEE 122030Z AUTO 11009KT CAVOK 25/20 Q1017 NOSIG

Laikas: 01:14 (21:14 UTC)

Prognozė

Ataskaita buvo paskelbta 4 valandos ir 14 minutes, ne 17:00 UTC
Prognozė galioja nuo 12 metu 18 UTC su 13 metu 24 UTC
Vėjas 5 kt iš Pietryčių
Matomumas 10 km arba daugiau
Mažai debesys ne aukštis 7000 ft
Apsiniaukę ne aukštis 13000 ft
Laikinai
nuo 13 metu 00 UTC su 13 metu 06 UTC
Matomumas: 3000 m
Išsisklaidę debesys ne aukštis 1500 ft, aukštai iškilę kamuoliniai debesys.
lietus
Laikinai
nuo 13 metu 06 UTC su 13 metu 18 UTC
Vėjas 15 kt iš Rytų/Pietryčių su gūsio iki 25 kt

TAF: FMEE 121700Z 1218/1324 13005KT 9999 FEW070 OVC130 TEMPO 1300/1306 3000 SHRA SCT015TCU TEMPO 1306/1318 11015G25KT

Orai ataskaitas ir orų prognozės (METAR, TAF).

turimą stotys yra geltonos ir raudonos taškus žemėlapyje.

Perkelti pele per norėdami pamatyti stoties vardą.

Tada spustelėkite, norėdami matyti oro stebėjimo ir prognozės.

Norėdami pakeisti žemėlapį: spustelėkite ant žalios mygtukų su juodo kryžiaus žemyn,; žalią mygtuką su brūkšneliu, jei norite nutolinti; arba žalių rodyklių gretimoms žemėlapius.


METAR-TAF: